sensor_id;sensor_type;location;lat;lon;timestamp;pressure;altitude;pressure_sealevel;temperature;humidity
11345;BME280;5727;42.600;23.028;2023-01-15T00:01:41;94060.56;;;5.52;100.00
11345;BME280;5727;42.600;23.028;2023-01-15T00:04:09;94056.66;;;5.55;100.00
11345;BME280;5727;42.600;23.028;2023-01-15T00:06:39;94060.19;;;5.59;100.00
11345;BME280;5727;42.600;23.028;2023-01-15T00:09:07;94058.38;;;5.59;100.00
11345;BME280;5727;42.600;23.028;2023-01-15T00:11:34;94058.06;;;5.61;100.00
11345;BME280;5727;42.600;23.028;2023-01-15T00:14:01;94061.44;;;5.62;100.00
11345;BME280;5727;42.600;23.028;2023-01-15T00:16:29;94062.59;;;5.55;100.00
11345;BME280;5727;42.600;23.028;2023-01-15T00:18:57;94065.19;;;5.55;100.00
11345;BME280;5727;42.600;23.028;2023-01-15T00:21:26;94068.28;;;5.57;100.00
11345;BME280;5727;42.600;23.028;2023-01-15T00:23:53;94065.47;;;5.54;100.00
11345;BME280;5727;42.600;23.028;2023-01-15T00:26:40;94067.09;;;5.50;100.00
11345;BME280;5727;42.600;23.028;2023-01-15T00:29:25;94061.06;;;5.22;100.00
11345;BME280;5727;42.600;23.028;2023-01-15T00:31:55;94059.66;;;5.11;100.00
11345;BME280;5727;42.600;23.028;2023-01-15T00:34:24;94063.59;;;4.90;100.00
11345;BME280;5727;42.600;23.028;2023-01-15T00:36:51;94065.56;;;4.80;100.00
11345;BME280;5727;42.600;23.028;2023-01-15T00:39:18;94064.38;;;4.72;100.00
11345;BME280;5727;42.600;23.028;2023-01-15T00:41:44;94054.97;;;4.76;100.00
11345;BME280;5727;42.600;23.028;2023-01-15T00:44:11;94057.81;;;4.75;100.00
11345;BME280;5727;42.600;23.028;2023-01-15T00:46:38;94060.38;;;4.61;100.00
11345;BME280;5727;42.600;23.028;2023-01-15T00:49:06;94064.31;;;4.35;100.00
11345;BME280;5727;42.600;23.028;2023-01-15T00:51:33;94055.16;;;4.19;100.00
11345;BME280;5727;42.600;23.028;2023-01-15T00:54:00;94052.34;;;4.15;100.00
11345;BME280;5727;42.600;23.028;2023-01-15T00:56:27;94044.88;;;4.32;100.00
11345;BME280;5727;42.600;23.028;2023-01-15T00:58:54;94050.34;;;4.31;100.00
11345;BME280;5727;42.600;23.028;2023-01-15T01:01:21;94054.44;;;4.37;100.00
11345;BME280;5727;42.600;23.028;2023-01-15T01:03:48;94053.22;;;4.29;100.00
11345;BME280;5727;42.600;23.028;2023-01-15T01:06:19;94049.94;;;4.24;100.00
11345;BME280;5727;42.600;23.028;2023-01-15T01:08:46;94047.84;;;4.26;100.00
11345;BME280;5727;42.600;23.028;2023-01-15T01:11:15;94050.25;;;4.17;100.00
11345;BME280;5727;42.600;23.028;2023-01-15T01:13:43;94052.91;;;4.12;100.00
11345;BME280;5727;42.600;23.028;2023-01-15T01:16:25;94045.19;;;4.07;100.00
11345;BME280;5727;42.600;23.028;2023-01-15T01:18:52;94049.66;;;4.02;100.00
11345;BME280;5727;42.600;23.028;2023-01-15T01:21:20;94045.63;;;3.91;100.00
11345;BME280;5727;42.600;23.028;2023-01-15T01:23:47;94045.69;;;3.86;100.00
11345;BME280;5727;42.600;23.028;2023-01-15T01:26:14;94039.53;;;3.77;100.00
11345;BME280;5727;42.600;23.028;2023-01-15T01:28:42;94037.56;;;3.68;100.00
11345;BME280;5727;42.600;23.028;2023-01-15T01:31:09;94036.00;;;3.67;100.00
11345;BME280;5727;42.600;23.028;2023-01-15T01:33:35;94045.59;;;3.67;100.00
11345;BME280;5727;42.600;23.028;2023-01-15T01:36:02;94045.22;;;3.55;100.00
11345;BME280;5727;42.600;23.028;2023-01-15T01:38:31;94041.34;;;3.52;100.00
11345;BME280;5727;42.600;23.028;2023-01-15T01:40:57;94038.75;;;3.52;100.00
11345;BME280;5727;42.600;23.028;2023-01-15T01:43:26;94047.03;;;3.54;100.00
11345;BME280;5727;42.600;23.028;2023-01-15T01:45:54;94043.56;;;3.64;100.00
11345;BME280;5727;42.600;23.028;2023-01-15T01:48:25;94040.97;;;3.64;100.00
11345;BME280;5727;42.600;23.028;2023-01-15T01:50:57;94047.47;;;3.61;100.00
11345;BME280;5727;42.600;23.028;2023-01-15T01:53:28;94049.13;;;3.52;100.00
11345;BME280;5727;42.600;23.028;2023-01-15T01:55:58;94045.78;;;3.47;100.00
11345;BME280;5727;42.600;23.028;2023-01-15T01:58:29;94039.53;;;3.53;100.00
11345;BME280;5727;42.600;23.028;2023-01-15T02:00:58;94031.59;;;3.68;100.00
11345;BME280;5727;42.600;23.028;2023-01-15T02:03:28;94031.66;;;3.63;100.00
11345;BME280;5727;42.600;23.028;2023-01-15T02:05:57;94025.94;;;3.66;100.00
11345;BME280;5727;42.600;23.028;2023-01-15T02:08:25;94022.75;;;3.74;100.00
11345;BME280;5727;42.600;23.028;2023-01-15T02:10:54;94025.50;;;3.83;100.00
11345;BME280;5727;42.600;23.028;2023-01-15T02:13:28;94037.44;;;3.79;100.00
11345;BME280;5727;42.600;23.028;2023-01-15T02:16:01;94023.34;;;3.90;100.00
11345;BME280;5727;42.600;23.028;2023-01-15T02:18:35;94023.53;;;3.75;100.00
11345;BME280;5727;42.600;23.028;2023-01-15T02:21:11;94021.47;;;3.71;100.00
11345;BME280;5727;42.600;23.028;2023-01-15T02:24:05;94017.34;;;3.70;100.00
11345;BME280;5727;42.600;23.028;2023-01-15T02:27:02;94018.38;;;3.69;100.00
11345;BME280;5727;42.600;23.028;2023-01-15T02:29:37;94025.06;;;3.76;100.00
11345;BME280;5727;42.600;23.028;2023-01-15T02:32:08;94017.22;;;3.81;100.00
11345;BME280;5727;42.600;23.028;2023-01-15T02:34:42;94013.09;;;3.80;100.00
11345;BME280;5727;42.600;23.028;2023-01-15T02:37:13;94016.97;;;3.82;100.00
11345;BME280;5727;42.600;23.028;2023-01-15T02:39:44;94022.66;;;3.84;100.00
11345;BME280;5727;42.600;23.028;2023-01-15T02:42:14;94017.00;;;3.77;100.00
11345;BME280;5727;42.600;23.028;2023-01-15T02:44:45;94014.69;;;3.76;100.00
11345;BME280;5727;42.600;23.028;2023-01-15T02:47:14;94019.94;;;3.70;100.00
11345;BME280;5727;42.600;23.028;2023-01-15T02:49:42;94022.03;;;3.68;100.00
11345;BME280;5727;42.600;23.028;2023-01-15T02:52:14;94029.72;;;3.73;100.00
11345;BME280;5727;42.600;23.028;2023-01-15T02:54:47;94025.44;;;3.64;100.00
11345;BME280;5727;42.600;23.028;2023-01-15T02:57:17;94026.22;;;3.64;100.00
11345;BME280;5727;42.600;23.028;2023-01-15T02:59:48;94032.59;;;3.72;100.00
11345;BME280;5727;42.600;23.028;2023-01-15T03:02:19;94020.69;;;3.71;100.00
11345;BME280;5727;42.600;23.028;2023-01-15T03:04:50;94028.19;;;3.72;100.00
11345;BME280;5727;42.600;23.028;2023-01-15T03:07:22;94030.38;;;3.60;100.00
11345;BME280;5727;42.600;23.028;2023-01-15T03:09:50;94026.75;;;3.61;100.00
11345;BME280;5727;42.600;23.028;2023-01-15T03:12:23;94030.16;;;3.57;100.00
11345;BME280;5727;42.600;23.028;2023-01-15T03:14:58;94017.97;;;3.57;100.00
11345;BME280;5727;42.600;23.028;2023-01-15T03:17:33;94021.69;;;3.75;100.00
11345;BME280;5727;42.600;23.028;2023-01-15T03:20:05;94024.84;;;3.96;100.00
11345;BME280;5727;42.600;23.028;2023-01-15T03:22:37;94024.88;;;4.14;100.00
11345;BME280;5727;42.600;23.028;2023-01-15T03:25:06;94024.19;;;4.27;100.00
11345;BME280;5727;42.600;23.028;2023-01-15T03:27:37;94029.00;;;4.15;100.00
11345;BME280;5727;42.600;23.028;2023-01-15T03:30:06;94031.19;;;4.08;100.00
11345;BME280;5727;42.600;23.028;2023-01-15T03:32:34;94020.13;;;3.98;100.00
11345;BME280;5727;42.600;23.028;2023-01-15T03:35:01;94020.25;;;4.11;100.00
11345;BME280;5727;42.600;23.028;2023-01-15T03:37:28;94018.50;;;4.07;100.00
11345;BME280;5727;42.600;23.028;2023-01-15T03:39:56;94015.28;;;4.15;100.00
11345;BME280;5727;42.600;23.028;2023-01-15T03:42:33;94014.72;;;4.18;100.00
11345;BME280;5727;42.600;23.028;2023-01-15T03:45:10;94010.72;;;4.07;100.00
11345;BME280;5727;42.600;23.028;2023-01-15T03:47:45;94012.63;;;3.96;100.00
11345;BME280;5727;42.600;23.028;2023-01-15T03:50:20;94011.72;;;3.87;100.00
11345;BME280;5727;42.600;23.028;2023-01-15T03:52:57;94010.81;;;3.97;100.00
11345;BME280;5727;42.600;23.028;2023-01-15T03:55:36;94011.38;;;3.94;100.00
11345;BME280;5727;42.600;23.028;2023-01-15T03:58:08;94012.44;;;3.93;100.00
11345;BME280;5727;42.600;23.028;2023-01-15T04:00:42;94002.72;;;4.03;100.00
11345;BME280;5727;42.600;23.028;2023-01-15T04:03:10;94006.06;;;4.04;100.00
11345;BME280;5727;42.600;23.028;2023-01-15T04:05:39;94007.53;;;3.91;100.00
11345;BME280;5727;42.600;23.028;2023-01-15T04:08:07;94010.00;;;4.01;100.00
11345;BME280;5727;42.600;23.028;2023-01-15T04:10:35;94010.72;;;4.07;100.00
11345;BME280;5727;42.600;23.028;2023-01-15T04:13:02;94014.94;;;3.98;100.00
11345;BME280;5727;42.600;23.028;2023-01-15T04:15:29;94007.53;;;3.91;100.00
11345;BME280;5727;42.600;23.028;2023-01-15T04:17:57;94002.22;;;3.78;100.00
11345;BME280;5727;42.600;23.028;2023-01-15T04:20:23;94001.72;;;3.76;100.00
11345;BME280;5727;42.600;23.028;2023-01-15T04:22:50;94010.00;;;3.78;100.00
11345;BME280;5727;42.600;23.028;2023-01-15T04:25:17;94006.47;;;3.92;100.00
11345;BME280;5727;42.600;23.028;2023-01-15T04:27:43;94024.00;;;4.00;100.00
11345;BME280;5727;42.600;23.028;2023-01-15T04:30:11;94018.78;;;4.05;100.00
11345;BME280;5727;42.600;23.028;2023-01-15T04:32:38;94011.56;;;4.21;100.00
11345;BME280;5727;42.600;23.028;2023-01-15T04:35:06;94013.25;;;4.12;100.00
11345;BME280;5727;42.600;23.028;2023-01-15T04:37:33;94015.16;;;4.25;100.00
11345;BME280;5727;42.600;23.028;2023-01-15T04:40:00;94019.63;;;4.19;100.00
11345;BME280;5727;42.600;23.028;2023-01-15T04:42:26;94019.59;;;4.01;100.00
11345;BME280;5727;42.600;23.028;2023-01-15T04:45:10;94022.00;;;3.92;100.00
11345;BME280;5727;42.600;23.028;2023-01-15T04:47:37;94017.06;;;3.96;100.00
11345;BME280;5727;42.600;23.028;2023-01-15T04:50:06;94012.50;;;3.88;100.00
11345;BME280;5727;42.600;23.028;2023-01-15T04:52:33;94020.81;;;3.85;100.00
11345;BME280;5727;42.600;23.028;2023-01-15T04:55:00;94011.28;;;3.80;100.00
11345;BME280;5727;42.600;23.028;2023-01-15T04:57:26;94010.06;;;3.72;100.00
11345;BME280;5727;42.600;23.028;2023-01-15T04:59:53;94014.09;;;3.84;100.00
11345;BME280;5727;42.600;23.028;2023-01-15T05:02:20;94017.97;;;3.86;100.00
11345;BME280;5727;42.600;23.028;2023-01-15T05:04:47;94012.44;;;3.93;100.00
11345;BME280;5727;42.600;23.028;2023-01-15T05:07:16;94011.72;;;3.87;100.00
11345;BME280;5727;42.600;23.028;2023-01-15T05:09:43;94013.09;;;3.80;100.00
11345;BME280;5727;42.600;23.028;2023-01-15T05:12:09;94014.03;;;3.89;100.00
11345;BME280;5727;42.600;23.028;2023-01-15T05:14:36;94010.22;;;4.05;100.00
11345;BME280;5727;42.600;23.028;2023-01-15T05:17:03;94023.41;;;4.08;100.00
11345;BME280;5727;42.600;23.028;2023-01-15T05:19:29;94013.97;;;3.94;100.00
11345;BME280;5727;42.600;23.028;2023-01-15T05:21:56;94014.50;;;4.14;100.00
11345;BME280;5727;42.600;23.028;2023-01-15T05:24:24;94019.22;;;4.31;100.00
11345;BME280;5727;42.600;23.028;2023-01-15T05:26:51;94014.94;;;4.21;100.00
11345;BME280;5727;42.600;23.028;2023-01-15T05:29:18;94013.06;;;4.27;100.00
11345;BME280;5727;42.600;23.028;2023-01-15T05:31:45;94019.69;;;4.38;100.00
11345;BME280;5727;42.600;23.028;2023-01-15T05:34:12;94023.69;;;4.49;100.00
11345;BME280;5727;42.600;23.028;2023-01-15T05:36:39;94016.09;;;4.52;100.00
11345;BME280;5727;42.600;23.028;2023-01-15T05:39:05;94014.53;;;4.51;100.00
11345;BME280;5727;42.600;23.028;2023-01-15T05:41:34;94018.97;;;4.51;100.00
11345;BME280;5727;42.600;23.028;2023-01-15T05:44:18;94021.69;;;4.41;100.00
11345;BME280;5727;42.600;23.028;2023-01-15T05:46:46;94026.50;;;4.29;100.00
11345;BME280;5727;42.600;23.028;2023-01-15T05:49:14;94016.25;;;4.19;100.00
11345;BME280;5727;42.600;23.028;2023-01-15T05:52:00;94017.59;;;4.16;100.00
11345;BME280;5727;42.600;23.028;2023-01-15T05:54:28;94011.25;;;4.04;100.00
11345;BME280;5727;42.600;23.028;2023-01-15T05:56:57;94026.59;;;4.00;100.00
11345;BME280;5727;42.600;23.028;2023-01-15T05:59:25;94016.72;;;3.79;100.00
11345;BME280;5727;42.600;23.028;2023-01-15T06:01:53;94031.03;;;3.71;100.00
11345;BME280;5727;42.600;23.028;2023-01-15T06:04:20;94030.72;;;3.78;100.00
11345;BME280;5727;42.600;23.028;2023-01-15T06:06:50;94024.09;;;3.90;100.00
11345;BME280;5727;42.600;23.028;2023-01-15T06:09:18;94035.16;;;4.01;100.00
11345;BME280;5727;42.600;23.028;2023-01-15T06:11:45;94024.19;;;4.09;100.00
11345;BME280;5727;42.600;23.028;2023-01-15T06:14:13;94024.88;;;4.14;100.00
11345;BME280;5727;42.600;23.028;2023-01-15T06:16:40;94017.03;;;4.19;100.00
11345;BME280;5727;42.600;23.028;2023-01-15T06:19:08;94021.31;;;4.29;100.00
11345;BME280;5727;42.600;23.028;2023-01-15T06:21:35;94016.13;;;4.29;100.00
11345;BME280;5727;42.600;23.028;2023-01-15T06:24:02;94014.53;;;4.33;100.00
11345;BME280;5727;42.600;23.028;2023-01-15T06:26:29;94014.50;;;4.38;100.00
11345;BME280;5727;42.600;23.028;2023-01-15T06:28:56;94022.75;;;4.40;100.00
11345;BME280;5727;42.600;23.028;2023-01-15T06:31:24;94027.38;;;4.43;100.00
11345;BME280;5727;42.600;23.028;2023-01-15T06:33:52;94025.81;;;4.42;100.00
11345;BME280;5727;42.600;23.028;2023-01-15T06:36:20;94022.19;;;4.43;100.00
11345;BME280;5727;42.600;23.028;2023-01-15T06:38:47;94019.09;;;4.41;100.00
11345;BME280;5727;42.600;23.028;2023-01-15T06:41:17;94028.69;;;4.40;100.00
11345;BME280;5727;42.600;23.028;2023-01-15T06:44:02;94024.28;;;4.41;100.00
11345;BME280;5727;42.600;23.028;2023-01-15T06:46:49;94025.81;;;4.42;100.00
11345;BME280;5727;42.600;23.028;2023-01-15T06:49:34;94035.09;;;4.48;100.00
11345;BME280;5727;42.600;23.028;2023-01-15T06:52:02;94025.56;;;4.43;100.00
11345;BME280;5727;42.600;23.028;2023-01-15T06:54:30;94028.09;;;4.48;100.00
11345;BME280;5727;42.600;23.028;2023-01-15T06:56:56;94023.59;;;4.54;100.00
11345;BME280;5727;42.600;23.028;2023-01-15T06:59:23;94023.59;;;4.54;100.00
11345;BME280;5727;42.600;23.028;2023-01-15T07:01:51;94024.59;;;4.58;100.00
11345;BME280;5727;42.600;23.028;2023-01-15T07:04:18;94032.28;;;4.63;100.00
11345;BME280;5727;42.600;23.028;2023-01-15T07:06:45;94033.78;;;4.69;100.00
11345;BME280;5727;42.600;23.028;2023-01-15T07:09:12;94039.16;;;4.73;100.00
11345;BME280;5727;42.600;23.028;2023-01-15T07:11:38;94041.00;;;4.72;100.00
11345;BME280;5727;42.600;23.028;2023-01-15T07:14:14;94033.72;;;4.74;100.00
11345;BME280;5727;42.600;23.028;2023-01-15T07:16:41;94040.88;;;4.82;100.00
11345;BME280;5727;42.600;23.028;2023-01-15T07:19:09;94044.16;;;4.69;100.00
11345;BME280;5727;42.600;23.028;2023-01-15T07:21:35;94046.28;;;4.86;100.00
11345;BME280;5727;42.600;23.028;2023-01-15T07:24:03;94042.47;;;4.97;100.00
11345;BME280;5727;42.600;23.028;2023-01-15T07:26:30;94043.66;;;5.04;100.00
11345;BME280;5727;42.600;23.028;2023-01-15T07:28:56;94055.13;;;5.03;100.00
11345;BME280;5727;42.600;23.028;2023-01-15T07:31:23;94048.34;;;5.21;100.00
11345;BME280;5727;42.600;23.028;2023-01-15T07:33:50;94041.94;;;5.32;100.00
11345;BME280;5727;42.600;23.028;2023-01-15T07:36:18;94051.41;;;5.41;100.00
11345;BME280;5727;42.600;23.028;2023-01-15T07:38:45;94041.41;;;5.48;100.00
11345;BME280;5727;42.600;23.028;2023-01-15T07:41:12;94044.03;;;5.62;100.00
11345;BME280;5727;42.600;23.028;2023-01-15T07:43:56;94045.69;;;5.72;100.00
11345;BME280;5727;42.600;23.028;2023-01-15T07:46:40;94046.28;;;5.82;100.00
11345;BME280;5727;42.600;23.028;2023-01-15T07:49:24;94048.91;;;5.96;100.00
11345;BME280;5727;42.600;23.028;2023-01-15T07:52:09;94045.66;;;6.04;100.00
11345;BME280;5727;42.600;23.028;2023-01-15T07:54:36;94038.53;;;6.09;100.00
11345;BME280;5727;42.600;23.028;2023-01-15T07:57:03;94041.59;;;6.25;100.00
11345;BME280;5727;42.600;23.028;2023-01-15T07:59:30;94036.03;;;6.31;100.00
11345;BME280;5727;42.600;23.028;2023-01-15T08:01:57;94037.47;;;6.24;100.00
11345;BME280;5727;42.600;23.028;2023-01-15T08:04:24;94038.94;;;6.30;100.00
11345;BME280;5727;42.600;23.028;2023-01-15T08:06:51;94036.69;;;6.37;100.00
11345;BME280;5727;42.600;23.028;2023-01-15T08:09:19;94045.66;;;6.44;100.00
11345;BME280;5727;42.600;23.028;2023-01-15T08:11:45;94041.22;;;6.59;100.00
11345;BME280;5727;42.600;23.028;2023-01-15T08:14:29;94039.94;;;6.70;100.00
11345;BME280;5727;42.600;23.028;2023-01-15T08:17:13;94045.16;;;6.56;100.00
11345;BME280;5727;42.600;23.028;2023-01-15T08:19:40;94052.41;;;6.32;100.00
11345;BME280;5727;42.600;23.028;2023-01-15T08:22:09;94062.72;;;6.23;100.00
11345;BME280;5727;42.600;23.028;2023-01-15T08:24:37;94059.16;;;6.33;100.00
11345;BME280;5727;42.600;23.028;2023-01-15T08:27:04;94055.69;;;6.51;100.00
11345;BME280;5727;42.600;23.028;2023-01-15T08:29:31;94057.78;;;6.63;100.00
11345;BME280;5727;42.600;23.028;2023-01-15T08:31:57;94061.63;;;6.65;100.00
11345;BME280;5727;42.600;23.028;2023-01-15T08:34:24;94057.81;;;6.49;100.00
11345;BME280;5727;42.600;23.028;2023-01-15T08:36:51;94054.91;;;6.37;100.00
11345;BME280;5727;42.600;23.028;2023-01-15T08:39:24;94057.88;;;6.30;100.00
11345;BME280;5727;42.600;23.028;2023-01-15T08:41:52;94060.22;;;6.32;100.00
11345;BME280;5727;42.600;23.028;2023-01-15T08:44:19;94053.16;;;6.19;100.00
11345;BME280;5727;42.600;23.028;2023-01-15T08:46:48;94047.97;;;6.46;100.00
11345;BME280;5727;42.600;23.028;2023-01-15T08:49:15;94051.13;;;6.57;100.00
11345;BME280;5727;42.600;23.028;2023-01-15T08:51:43;94047.19;;;6.45;100.00
11345;BME280;5727;42.600;23.028;2023-01-15T08:54:11;94045.28;;;6.24;100.00
11345;BME280;5727;42.600;23.028;2023-01-15T08:56:38;94043.84;;;6.18;100.00
11345;BME280;5727;42.600;23.028;2023-01-15T08:59:06;94039.00;;;6.38;100.00
11345;BME280;5727;42.600;23.028;2023-01-15T09:01:34;94046.19;;;6.55;100.00
11345;BME280;5727;42.600;23.028;2023-01-15T09:04:00;94047.66;;;6.47;100.00
11345;BME280;5727;42.600;23.028;2023-01-15T09:06:27;94037.19;;;6.39;100.00
11345;BME280;5727;42.600;23.028;2023-01-15T09:08:54;94034.09;;;6.51;100.00
11345;BME280;5727;42.600;23.028;2023-01-15T09:11:21;94038.47;;;6.77;100.00
11345;BME280;5727;42.600;23.028;2023-01-15T09:13:47;94040.03;;;7.00;100.00
11345;BME280;5727;42.600;23.028;2023-01-15T09:16:17;94034.78;;;7.14;100.00
11345;BME280;5727;42.600;23.028;2023-01-15T09:18:44;94031.53;;;7.30;100.00
11345;BME280;5727;42.600;23.028;2023-01-15T09:21:10;94030.34;;;7.59;100.00
11345;BME280;5727;42.600;23.028;2023-01-15T09:23:37;94028.16;;;7.83;100.00
11345;BME280;5727;42.600;23.028;2023-01-15T09:26:06;94022.41;;;8.03;99.53
11345;BME280;5727;42.600;23.028;2023-01-15T09:28:33;94020.59;;;8.12;98.49
11345;BME280;5727;42.600;23.028;2023-01-15T09:31:00;94017.06;;;8.16;96.96
11345;BME280;5727;42.600;23.028;2023-01-15T09:33:28;94017.84;;;8.17;95.95
11345;BME280;5727;42.600;23.028;2023-01-15T09:35:55;94001.09;;;8.09;96.34
11345;BME280;5727;42.600;23.028;2023-01-15T09:38:22;94008.56;;;7.63;97.72
11345;BME280;5727;42.600;23.028;2023-01-15T09:40:50;94007.75;;;7.54;98.92
11345;BME280;5727;42.600;23.028;2023-01-15T09:43:28;94001.66;;;7.59;99.04
11345;BME280;5727;42.600;23.028;2023-01-15T09:46:05;93993.31;;;7.48;98.97
11345;BME280;5727;42.600;23.028;2023-01-15T09:48:49;93986.13;;;7.54;99.51
11345;BME280;5727;42.600;23.028;2023-01-15T09:51:24;93976.16;;;7.56;99.49
11345;BME280;5727;42.600;23.028;2023-01-15T09:54:13;93975.84;;;7.57;99.40
11345;BME280;5727;42.600;23.028;2023-01-15T09:56:43;93965.72;;;7.56;99.66
11345;BME280;5727;42.600;23.028;2023-01-15T09:59:18;93969.66;;;7.45;99.88
11345;BME280;5727;42.600;23.028;2023-01-15T10:01:46;93959.38;;;7.39;100.00
11345;BME280;5727;42.600;23.028;2023-01-15T10:04:28;93948.81;;;7.45;100.00
11345;BME280;5727;42.600;23.028;2023-01-15T10:07:03;93941.94;;;7.49;100.00
11345;BME280;5727;42.600;23.028;2023-01-15T10:09:34;93940.75;;;7.55;99.77
11345;BME280;5727;42.600;23.028;2023-01-15T10:12:12;93932.72;;;7.43;100.00
11345;BME280;5727;42.600;23.028;2023-01-15T10:15:04;93924.16;;;7.51;100.00
11345;BME280;5727;42.600;23.028;2023-01-15T10:17:38;93933.41;;;7.57;100.00
11345;BME280;5727;42.600;23.028;2023-01-15T10:20:14;93917.88;;;7.52;100.00
11345;BME280;5727;42.600;23.028;2023-01-15T10:22:57;93909.03;;;7.30;100.00
11345;BME280;5727;42.600;23.028;2023-01-15T10:25:30;93912.50;;;7.48;100.00
11345;BME280;5727;42.600;23.028;2023-01-15T10:28:07;93903.63;;;7.49;100.00
11345;BME280;5727;42.600;23.028;2023-01-15T10:30:42;93899.94;;;7.50;100.00
11345;BME280;5727;42.600;23.028;2023-01-15T10:33:26;93900.69;;;7.51;100.00
11345;BME280;5727;42.600;23.028;2023-01-15T10:36:01;93890.91;;;7.56;100.00
11345;BME280;5727;42.600;23.028;2023-01-15T10:38:33;93888.47;;;7.60;100.00
11345;BME280;5727;42.600;23.028;2023-01-15T10:41:08;93881.03;;;7.45;100.00
11345;BME280;5727;42.600;23.028;2023-01-15T10:43:45;93871.81;;;7.38;100.00
11345;BME280;5727;42.600;23.028;2023-01-15T10:46:16;93865.72;;;7.43;100.00
11345;BME280;5727;42.600;23.028;2023-01-15T10:48:45;93861.03;;;7.62;100.00
11345;BME280;5727;42.600;23.028;2023-01-15T10:51:17;93859.06;;;7.85;100.00
11345;BME280;5727;42.600;23.028;2023-01-15T10:53:49;93852.66;;;7.99;97.98
11345;BME280;5727;42.600;23.028;2023-01-15T10:56:27;93858.19;;;8.15;96.72
11345;BME280;5727;42.600;23.028;2023-01-15T10:59:05;93850.22;;;8.20;96.45
11345;BME280;5727;42.600;23.028;2023-01-15T11:01:36;93845.59;;;8.00;96.19
11345;BME280;5727;42.600;23.028;2023-01-15T11:04:04;93844.81;;;7.99;95.58
11345;BME280;5727;42.600;23.028;2023-01-15T11:06:33;93843.75;;;8.09;96.31
11345;BME280;5727;42.600;23.028;2023-01-15T11:09:00;93840.25;;;8.22;96.23
11345;BME280;5727;42.600;23.028;2023-01-15T11:11:30;93834.44;;;8.34;94.77
11345;BME280;5727;42.600;23.028;2023-01-15T11:14:34;93828.59;;;8.37;93.79
11345;BME280;5727;42.600;23.028;2023-01-15T11:17:20;93829.06;;;8.47;94.20
11345;BME280;5727;42.600;23.028;2023-01-15T11:20:26;93836.25;;;8.42;93.35
11345;BME280;5727;42.600;23.028;2023-01-15T11:22:57;93828.09;;;8.00;93.02
11345;BME280;5727;42.600;23.028;2023-01-15T11:25:32;93823.34;;;7.94;95.11
11345;BME280;5727;42.600;23.028;2023-01-15T11:28:01;93822.28;;;7.95;96.17
11345;BME280;5727;42.600;23.028;2023-01-15T11:30:32;93823.19;;;7.99;95.90
11345;BME280;5727;42.600;23.028;2023-01-15T11:33:02;93813.38;;;8.13;96.46
11345;BME280;5727;42.600;23.028;2023-01-15T11:35:30;93813.25;;;8.26;95.72
11345;BME280;5727;42.600;23.028;2023-01-15T11:38:04;93817.25;;;8.41;94.21
11345;BME280;5727;42.600;23.028;2023-01-15T11:40:31;93803.72;;;8.48;93.76
11345;BME280;5727;42.600;23.028;2023-01-15T11:42:58;93804.66;;;8.43;92.45
11345;BME280;5727;42.600;23.028;2023-01-15T11:45:46;93806.47;;;8.43;92.42
11345;BME280;5727;42.600;23.028;2023-01-15T11:48:34;93800.81;;;8.41;93.51
11345;BME280;5727;42.600;23.028;2023-01-15T11:51:19;93796.34;;;8.58;93.60
11345;BME280;5727;42.600;23.028;2023-01-15T11:53:49;93787.69;;;8.75;94.38
11345;BME280;5727;42.600;23.028;2023-01-15T11:56:19;93785.97;;;8.87;93.14
11345;BME280;5727;42.600;23.028;2023-01-15T11:58:50;93783.69;;;8.69;90.26
11345;BME280;5727;42.600;23.028;2023-01-15T12:01:24;93786.16;;;8.74;90.82
11345;BME280;5727;42.600;23.028;2023-01-15T12:03:52;93784.47;;;8.78;90.92
11345;BME280;5727;42.600;23.028;2023-01-15T12:06:20;93782.72;;;8.90;90.53
11345;BME280;5727;42.600;23.028;2023-01-15T12:08:49;93780.75;;;8.87;89.15
11345;BME280;5727;42.600;23.028;2023-01-15T12:11:34;93780.56;;;8.92;88.89
11345;BME280;5727;42.600;23.028;2023-01-15T12:14:17;93776.13;;;8.84;88.16
11345;BME280;5727;42.600;23.028;2023-01-15T12:16:54;93771.47;;;8.98;88.24
11345;BME280;5727;42.600;23.028;2023-01-15T12:19:29;93760.53;;;9.05;88.60
11345;BME280;5727;42.600;23.028;2023-01-15T12:22:10;93763.75;;;9.10;86.94
11345;BME280;5727;42.600;23.028;2023-01-15T12:25:02;93761.41;;;9.17;86.82
11345;BME280;5727;42.600;23.028;2023-01-15T12:27:56;93756.84;;;9.06;86.66
11345;BME280;5727;42.600;23.028;2023-01-15T12:30:30;93755.53;;;9.20;86.92
11345;BME280;5727;42.600;23.028;2023-01-15T12:33:18;93752.31;;;9.23;86.46
11345;BME280;5727;42.600;23.028;2023-01-15T12:35:51;93746.69;;;9.34;86.66
11345;BME280;5727;42.600;23.028;2023-01-15T12:38:28;93742.38;;;9.38;86.30
11345;BME280;5727;42.600;23.028;2023-01-15T12:41:06;93743.94;;;9.39;85.78
11345;BME280;5727;42.600;23.028;2023-01-15T12:43:34;93742.38;;;9.38;85.65
11345;BME280;5727;42.600;23.028;2023-01-15T12:46:23;93736.56;;;9.32;85.07
11345;BME280;5727;42.600;23.028;2023-01-15T12:48:56;93750.84;;;9.43;85.16
11345;BME280;5727;42.600;23.028;2023-01-15T12:51:32;93736.91;;;9.51;83.47
11345;BME280;5727;42.600;23.028;2023-01-15T12:54:04;93731.66;;;10.54;81.21
11345;BME280;5727;42.600;23.028;2023-01-15T12:56:44;93726.03;;;11.73;73.06
11345;BME280;5727;42.600;23.028;2023-01-15T12:59:16;93722.41;;;13.35;64.45
11345;BME280;5727;42.600;23.028;2023-01-15T13:01:51;93702.69;;;13.79;60.08
11345;BME280;5727;42.600;23.028;2023-01-15T13:04:24;93701.63;;;14.22;55.17
11345;BME280;5727;42.600;23.028;2023-01-15T13:06:57;93693.97;;;13.59;57.31
11345;BME280;5727;42.600;23.028;2023-01-15T13:09:34;93688.13;;;14.61;53.79
11345;BME280;5727;42.600;23.028;2023-01-15T13:12:11;93688.66;;;15.68;50.45
11345;BME280;5727;42.600;23.028;2023-01-15T13:14:39;93679.28;;;16.33;47.68
11345;BME280;5727;42.600;23.028;2023-01-15T13:17:11;93682.50;;;16.50;46.08
11345;BME280;5727;42.600;23.028;2023-01-15T13:19:49;93677.84;;;16.73;45.53
11345;BME280;5727;42.600;23.028;2023-01-15T13:22:21;93681.25;;;16.40;46.15
11345;BME280;5727;42.600;23.028;2023-01-15T13:25:03;93674.72;;;16.30;45.71